sensor_id;sensor_type;location;lat;lon;timestamp;P1;durP1;ratioP1;P2;durP2;ratioP2
18776;SDS011;9517;51.174;4.160;2022-10-16T00:00:48;6.90;;;2.77;;
18776;SDS011;9517;51.174;4.160;2022-10-16T00:03:15;5.80;;;2.10;;
18776;SDS011;9517;51.174;4.160;2022-10-16T00:05:44;5.77;;;2.03;;
18776;SDS011;9517;51.174;4.160;2022-10-16T00:08:11;6.43;;;2.03;;
18776;SDS011;9517;51.174;4.160;2022-10-16T00:10:39;7.00;;;1.97;;
18776;SDS011;9517;51.174;4.160;2022-10-16T00:13:06;8.20;;;2.17;;
18776;SDS011;9517;51.174;4.160;2022-10-16T00:15:34;8.93;;;2.60;;
18776;SDS011;9517;51.174;4.160;2022-10-16T00:18:02;7.40;;;2.13;;
18776;SDS011;9517;51.174;4.160;2022-10-16T00:20:30;5.23;;;1.93;;
18776;SDS011;9517;51.174;4.160;2022-10-16T00:23:03;7.63;;;2.13;;
18776;SDS011;9517;51.174;4.160;2022-10-16T00:25:30;7.97;;;2.10;;
18776;SDS011;9517;51.174;4.160;2022-10-16T00:27:58;8.97;;;2.40;;
18776;SDS011;9517;51.174;4.160;2022-10-16T00:30:26;6.80;;;1.80;;
18776;SDS011;9517;51.174;4.160;2022-10-16T00:32:54;5.57;;;1.70;;
18776;SDS011;9517;51.174;4.160;2022-10-16T00:35:21;5.90;;;1.80;;
18776;SDS011;9517;51.174;4.160;2022-10-16T00:37:48;5.47;;;1.80;;
18776;SDS011;9517;51.174;4.160;2022-10-16T00:40:16;4.80;;;1.77;;
18776;SDS011;9517;51.174;4.160;2022-10-16T00:42:43;7.07;;;2.00;;
18776;SDS011;9517;51.174;4.160;2022-10-16T00:45:11;7.43;;;2.00;;
18776;SDS011;9517;51.174;4.160;2022-10-16T00:47:39;8.50;;;2.70;;
18776;SDS011;9517;51.174;4.160;2022-10-16T00:50:13;8.87;;;1.80;;
18776;SDS011;9517;51.174;4.160;2022-10-16T00:52:46;5.27;;;1.90;;
18776;SDS011;9517;51.174;4.160;2022-10-16T00:55:14;9.03;;;2.20;;
18776;SDS011;9517;51.174;4.160;2022-10-16T00:57:43;6.83;;;2.07;;
18776;SDS011;9517;51.174;4.160;2022-10-16T01:00:16;6.43;;;1.83;;
18776;SDS011;9517;51.174;4.160;2022-10-16T01:02:51;4.73;;;1.53;;
18776;SDS011;9517;51.174;4.160;2022-10-16T01:05:18;6.00;;;2.20;;
18776;SDS011;9517;51.174;4.160;2022-10-16T01:07:48;7.33;;;2.20;;
18776;SDS011;9517;51.174;4.160;2022-10-16T01:10:26;9.43;;;2.90;;
18776;SDS011;9517;51.174;4.160;2022-10-16T01:13:01;7.03;;;2.67;;
18776;SDS011;9517;51.174;4.160;2022-10-16T01:15:34;9.73;;;2.30;;
18776;SDS011;9517;51.174;4.160;2022-10-16T01:18:05;9.87;;;3.13;;
18776;SDS011;9517;51.174;4.160;2022-10-16T01:20:39;10.30;;;2.47;;
18776;SDS011;9517;51.174;4.160;2022-10-16T01:23:21;6.23;;;2.13;;
18776;SDS011;9517;51.174;4.160;2022-10-16T01:25:58;8.77;;;2.60;;
18776;SDS011;9517;51.174;4.160;2022-10-16T01:28:44;6.90;;;2.30;;
18776;SDS011;9517;51.174;4.160;2022-10-16T01:31:17;10.37;;;3.37;;
18776;SDS011;9517;51.174;4.160;2022-10-16T01:33:47;8.83;;;3.37;;
18776;SDS011;9517;51.174;4.160;2022-10-16T01:36:20;9.53;;;2.57;;
18776;SDS011;9517;51.174;4.160;2022-10-16T01:38:52;8.37;;;2.73;;
18776;SDS011;9517;51.174;4.160;2022-10-16T01:41:24;7.77;;;2.53;;
18776;SDS011;9517;51.174;4.160;2022-10-16T01:44:01;9.63;;;3.00;;
18776;SDS011;9517;51.174;4.160;2022-10-16T01:46:30;7.47;;;2.50;;
18776;SDS011;9517;51.174;4.160;2022-10-16T01:48:59;7.50;;;2.30;;
18776;SDS011;9517;51.174;4.160;2022-10-16T01:51:28;8.43;;;3.10;;
18776;SDS011;9517;51.174;4.160;2022-10-16T01:53:56;5.83;;;2.20;;
18776;SDS011;9517;51.174;4.160;2022-10-16T01:56:27;8.07;;;2.43;;
18776;SDS011;9517;51.174;4.160;2022-10-16T01:58:56;9.10;;;2.60;;
18776;SDS011;9517;51.174;4.160;2022-10-16T02:01:30;6.00;;;2.10;;
18776;SDS011;9517;51.174;4.160;2022-10-16T02:04:02;13.03;;;2.60;;
18776;SDS011;9517;51.174;4.160;2022-10-16T02:06:33;7.77;;;2.70;;
18776;SDS011;9517;51.174;4.160;2022-10-16T02:09:01;8.30;;;2.10;;
18776;SDS011;9517;51.174;4.160;2022-10-16T02:11:28;9.20;;;2.10;;
18776;SDS011;9517;51.174;4.160;2022-10-16T02:13:56;9.77;;;2.87;;
18776;SDS011;9517;51.174;4.160;2022-10-16T02:16:33;7.53;;;2.33;;
18776;SDS011;9517;51.174;4.160;2022-10-16T02:19:01;7.77;;;2.20;;
18776;SDS011;9517;51.174;4.160;2022-10-16T02:21:31;6.10;;;1.93;;
18776;SDS011;9517;51.174;4.160;2022-10-16T02:24:06;5.97;;;2.50;;
18776;SDS011;9517;51.174;4.160;2022-10-16T02:26:39;6.53;;;2.10;;
18776;SDS011;9517;51.174;4.160;2022-10-16T02:29:10;6.90;;;2.03;;
18776;SDS011;9517;51.174;4.160;2022-10-16T02:31:43;7.53;;;2.17;;
18776;SDS011;9517;51.174;4.160;2022-10-16T02:34:13;8.80;;;2.23;;
18776;SDS011;9517;51.174;4.160;2022-10-16T02:36:42;11.47;;;2.63;;
18776;SDS011;9517;51.174;4.160;2022-10-16T02:39:11;6.97;;;2.27;;
18776;SDS011;9517;51.174;4.160;2022-10-16T02:41:39;5.07;;;1.93;;
18776;SDS011;9517;51.174;4.160;2022-10-16T02:44:06;8.03;;;2.37;;
18776;SDS011;9517;51.174;4.160;2022-10-16T02:46:33;8.70;;;2.30;;
18776;SDS011;9517;51.174;4.160;2022-10-16T02:49:02;8.57;;;2.30;;
18776;SDS011;9517;51.174;4.160;2022-10-16T02:51:29;6.23;;;2.10;;
18776;SDS011;9517;51.174;4.160;2022-10-16T02:53:56;9.77;;;2.23;;
18776;SDS011;9517;51.174;4.160;2022-10-16T02:56:23;9.83;;;2.30;;
18776;SDS011;9517;51.174;4.160;2022-10-16T02:58:50;5.47;;;2.10;;
18776;SDS011;9517;51.174;4.160;2022-10-16T03:01:17;7.73;;;2.23;;
18776;SDS011;9517;51.174;4.160;2022-10-16T03:03:44;9.47;;;2.20;;
18776;SDS011;9517;51.174;4.160;2022-10-16T03:06:12;7.63;;;1.97;;
18776;SDS011;9517;51.174;4.160;2022-10-16T03:08:39;7.03;;;2.47;;
18776;SDS011;9517;51.174;4.160;2022-10-16T03:11:06;7.50;;;2.37;;
18776;SDS011;9517;51.174;4.160;2022-10-16T03:13:33;8.83;;;2.23;;
18776;SDS011;9517;51.174;4.160;2022-10-16T03:16:00;6.83;;;2.07;;
18776;SDS011;9517;51.174;4.160;2022-10-16T03:18:27;7.70;;;2.20;;
18776;SDS011;9517;51.174;4.160;2022-10-16T03:20:54;7.50;;;2.20;;
18776;SDS011;9517;51.174;4.160;2022-10-16T03:23:22;7.83;;;2.23;;
18776;SDS011;9517;51.174;4.160;2022-10-16T03:25:50;8.83;;;2.33;;
18776;SDS011;9517;51.174;4.160;2022-10-16T03:28:17;7.23;;;2.20;;
18776;SDS011;9517;51.174;4.160;2022-10-16T03:30:44;6.30;;;2.57;;
18776;SDS011;9517;51.174;4.160;2022-10-16T03:33:11;10.60;;;2.23;;
18776;SDS011;9517;51.174;4.160;2022-10-16T03:35:38;9.03;;;2.70;;
18776;SDS011;9517;51.174;4.160;2022-10-16T03:38:05;9.67;;;2.50;;
18776;SDS011;9517;51.174;4.160;2022-10-16T03:40:33;9.63;;;2.50;;
18776;SDS011;9517;51.174;4.160;2022-10-16T03:43:00;9.37;;;2.70;;
18776;SDS011;9517;51.174;4.160;2022-10-16T03:45:27;8.27;;;3.00;;
18776;SDS011;9517;51.174;4.160;2022-10-16T03:47:54;9.73;;;2.57;;
18776;SDS011;9517;51.174;4.160;2022-10-16T03:50:21;9.53;;;2.50;;
18776;SDS011;9517;51.174;4.160;2022-10-16T03:52:48;10.37;;;2.83;;
18776;SDS011;9517;51.174;4.160;2022-10-16T03:55:15;10.90;;;2.73;;
18776;SDS011;9517;51.174;4.160;2022-10-16T03:57:43;8.10;;;2.53;;
18776;SDS011;9517;51.174;4.160;2022-10-16T04:00:11;8.90;;;2.67;;
18776;SDS011;9517;51.174;4.160;2022-10-16T04:02:38;11.10;;;2.60;;
18776;SDS011;9517;51.174;4.160;2022-10-16T04:05:06;10.60;;;3.17;;
18776;SDS011;9517;51.174;4.160;2022-10-16T04:07:33;9.00;;;2.63;;
18776;SDS011;9517;51.174;4.160;2022-10-16T04:10:00;8.10;;;2.90;;
18776;SDS011;9517;51.174;4.160;2022-10-16T04:12:27;10.30;;;3.27;;
18776;SDS011;9517;51.174;4.160;2022-10-16T04:14:56;7.87;;;2.57;;
18776;SDS011;9517;51.174;4.160;2022-10-16T04:17:23;6.57;;;2.27;;
18776;SDS011;9517;51.174;4.160;2022-10-16T04:19:50;9.43;;;2.80;;
18776;SDS011;9517;51.174;4.160;2022-10-16T04:22:17;12.53;;;4.10;;
18776;SDS011;9517;51.174;4.160;2022-10-16T04:24:44;10.50;;;3.13;;
18776;SDS011;9517;51.174;4.160;2022-10-16T04:27:10;6.23;;;2.60;;
18776;SDS011;9517;51.174;4.160;2022-10-16T04:29:37;11.47;;;2.73;;
18776;SDS011;9517;51.174;4.160;2022-10-16T04:32:06;9.90;;;2.70;;
18776;SDS011;9517;51.174;4.160;2022-10-16T04:34:34;10.60;;;3.10;;
18776;SDS011;9517;51.174;4.160;2022-10-16T04:37:03;8.27;;;2.53;;
18776;SDS011;9517;51.174;4.160;2022-10-16T04:39:30;9.07;;;2.60;;
18776;SDS011;9517;51.174;4.160;2022-10-16T04:41:57;10.67;;;2.80;;
18776;SDS011;9517;51.174;4.160;2022-10-16T04:44:24;9.87;;;2.87;;
18776;SDS011;9517;51.174;4.160;2022-10-16T04:46:51;9.73;;;3.07;;
18776;SDS011;9517;51.174;4.160;2022-10-16T04:49:19;11.47;;;2.90;;
18776;SDS011;9517;51.174;4.160;2022-10-16T04:51:46;7.23;;;2.50;;
18776;SDS011;9517;51.174;4.160;2022-10-16T04:54:13;10.17;;;2.87;;
18776;SDS011;9517;51.174;4.160;2022-10-16T04:56:40;8.47;;;3.10;;
18776;SDS011;9517;51.174;4.160;2022-10-16T04:59:12;11.30;;;2.97;;
18776;SDS011;9517;51.174;4.160;2022-10-16T05:01:39;9.10;;;3.30;;
18776;SDS011;9517;51.174;4.160;2022-10-16T05:04:06;9.63;;;3.07;;
18776;SDS011;9517;51.174;4.160;2022-10-16T05:06:35;10.77;;;3.07;;
18776;SDS011;9517;51.174;4.160;2022-10-16T05:09:03;9.80;;;3.30;;
18776;SDS011;9517;51.174;4.160;2022-10-16T05:11:30;9.30;;;3.10;;
18776;SDS011;9517;51.174;4.160;2022-10-16T05:13:57;12.47;;;3.20;;
18776;SDS011;9517;51.174;4.160;2022-10-16T05:16:25;15.40;;;3.80;;
18776;SDS011;9517;51.174;4.160;2022-10-16T05:18:52;9.03;;;3.20;;
18776;SDS011;9517;51.174;4.160;2022-10-16T05:21:19;9.77;;;3.10;;
18776;SDS011;9517;51.174;4.160;2022-10-16T05:23:48;10.73;;;3.13;;
18776;SDS011;9517;51.174;4.160;2022-10-16T05:26:15;7.90;;;2.97;;
18776;SDS011;9517;51.174;4.160;2022-10-16T05:28:42;13.97;;;3.10;;
18776;SDS011;9517;51.174;4.160;2022-10-16T05:31:09;15.87;;;3.17;;
18776;SDS011;9517;51.174;4.160;2022-10-16T05:33:36;8.97;;;3.00;;
18776;SDS011;9517;51.174;4.160;2022-10-16T05:36:04;11.00;;;3.50;;
18776;SDS011;9517;51.174;4.160;2022-10-16T05:38:32;10.37;;;2.83;;
18776;SDS011;9517;51.174;4.160;2022-10-16T05:41:01;8.27;;;3.03;;
18776;SDS011;9517;51.174;4.160;2022-10-16T05:43:28;10.10;;;2.80;;
18776;SDS011;9517;51.174;4.160;2022-10-16T05:45:56;11.23;;;2.83;;
18776;SDS011;9517;51.174;4.160;2022-10-16T05:48:24;12.20;;;2.60;;
18776;SDS011;9517;51.174;4.160;2022-10-16T05:50:58;10.40;;;2.97;;
18776;SDS011;9517;51.174;4.160;2022-10-16T05:53:26;11.80;;;3.23;;
18776;SDS011;9517;51.174;4.160;2022-10-16T05:55:54;12.03;;;3.30;;
18776;SDS011;9517;51.174;4.160;2022-10-16T05:58:23;9.23;;;3.60;;
18776;SDS011;9517;51.174;4.160;2022-10-16T06:00:55;8.63;;;2.83;;
18776;SDS011;9517;51.174;4.160;2022-10-16T06:03:23;9.23;;;2.70;;
18776;SDS011;9517;51.174;4.160;2022-10-16T06:05:50;10.07;;;2.53;;
18776;SDS011;9517;51.174;4.160;2022-10-16T06:08:18;8.03;;;3.13;;
18776;SDS011;9517;51.174;4.160;2022-10-16T06:10:46;11.43;;;3.60;;
18776;SDS011;9517;51.174;4.160;2022-10-16T06:13:14;10.13;;;2.80;;
18776;SDS011;9517;51.174;4.160;2022-10-16T06:15:43;9.50;;;2.47;;
18776;SDS011;9517;51.174;4.160;2022-10-16T06:18:13;9.67;;;2.90;;
18776;SDS011;9517;51.174;4.160;2022-10-16T06:20:40;9.67;;;2.80;;
18776;SDS011;9517;51.174;4.160;2022-10-16T06:23:07;9.70;;;2.50;;
18776;SDS011;9517;51.174;4.160;2022-10-16T06:25:34;10.37;;;3.00;;
18776;SDS011;9517;51.174;4.160;2022-10-16T06:28:01;9.07;;;3.20;;
18776;SDS011;9517;51.174;4.160;2022-10-16T06:30:28;13.07;;;3.50;;
18776;SDS011;9517;51.174;4.160;2022-10-16T06:32:57;11.77;;;3.00;;
18776;SDS011;9517;51.174;4.160;2022-10-16T06:35:24;15.87;;;4.00;;
18776;SDS011;9517;51.174;4.160;2022-10-16T06:37:52;11.77;;;5.33;;
18776;SDS011;9517;51.174;4.160;2022-10-16T06:40:19;13.17;;;3.97;;
18776;SDS011;9517;51.174;4.160;2022-10-16T06:42:46;10.57;;;3.50;;
18776;SDS011;9517;51.174;4.160;2022-10-16T06:45:13;9.07;;;3.43;;
18776;SDS011;9517;51.174;4.160;2022-10-16T06:47:40;12.67;;;4.00;;
18776;SDS011;9517;51.174;4.160;2022-10-16T06:50:09;10.70;;;3.50;;
18776;SDS011;9517;51.174;4.160;2022-10-16T06:52:36;10.93;;;2.93;;
18776;SDS011;9517;51.174;4.160;2022-10-16T06:55:03;11.60;;;3.37;;
18776;SDS011;9517;51.174;4.160;2022-10-16T06:57:31;12.43;;;3.10;;
18776;SDS011;9517;51.174;4.160;2022-10-16T06:59:58;11.93;;;3.30;;
18776;SDS011;9517;51.174;4.160;2022-10-16T07:02:25;10.83;;;3.20;;
18776;SDS011;9517;51.174;4.160;2022-10-16T07:04:52;10.47;;;3.40;;
18776;SDS011;9517;51.174;4.160;2022-10-16T07:07:20;11.33;;;3.50;;
18776;SDS011;9517;51.174;4.160;2022-10-16T07:09:49;8.20;;;2.87;;
18776;SDS011;9517;51.174;4.160;2022-10-16T07:12:16;10.57;;;2.90;;
18776;SDS011;9517;51.174;4.160;2022-10-16T07:14:44;15.73;;;2.93;;
18776;SDS011;9517;51.174;4.160;2022-10-16T07:17:11;9.97;;;3.27;;
18776;SDS011;9517;51.174;4.160;2022-10-16T07:19:38;11.27;;;3.13;;
18776;SDS011;9517;51.174;4.160;2022-10-16T07:22:05;8.00;;;2.83;;
18776;SDS011;9517;51.174;4.160;2022-10-16T07:24:33;8.97;;;2.87;;
18776;SDS011;9517;51.174;4.160;2022-10-16T07:27:00;11.67;;;3.23;;
18776;SDS011;9517;51.174;4.160;2022-10-16T07:29:27;12.37;;;3.10;;
18776;SDS011;9517;51.174;4.160;2022-10-16T07:31:54;9.03;;;2.90;;
18776;SDS011;9517;51.174;4.160;2022-10-16T07:34:21;13.67;;;2.80;;
18776;SDS011;9517;51.174;4.160;2022-10-16T07:36:49;8.77;;;2.70;;
18776;SDS011;9517;51.174;4.160;2022-10-16T07:39:16;9.50;;;2.70;;
18776;SDS011;9517;51.174;4.160;2022-10-16T07:41:45;9.53;;;2.70;;
18776;SDS011;9517;51.174;4.160;2022-10-16T07:44:12;8.50;;;2.53;;
18776;SDS011;9517;51.174;4.160;2022-10-16T07:46:39;12.10;;;2.83;;
18776;SDS011;9517;51.174;4.160;2022-10-16T07:49:06;10.20;;;2.67;;
18776;SDS011;9517;51.174;4.160;2022-10-16T07:51:34;10.63;;;2.40;;
18776;SDS011;9517;51.174;4.160;2022-10-16T07:54:03;9.47;;;2.50;;
18776;SDS011;9517;51.174;4.160;2022-10-16T07:56:30;9.50;;;2.40;;
18776;SDS011;9517;51.174;4.160;2022-10-16T07:58:59;8.83;;;2.57;;
18776;SDS011;9517;51.174;4.160;2022-10-16T08:01:26;9.43;;;2.57;;
18776;SDS011;9517;51.174;4.160;2022-10-16T08:03:53;12.03;;;2.50;;
18776;SDS011;9517;51.174;4.160;2022-10-16T08:06:21;8.17;;;1.87;;
18776;SDS011;9517;51.174;4.160;2022-10-16T08:08:49;9.07;;;2.60;;
18776;SDS011;9517;51.174;4.160;2022-10-16T08:11:16;9.27;;;1.90;;
18776;SDS011;9517;51.174;4.160;2022-10-16T08:13:43;8.43;;;2.00;;
18776;SDS011;9517;51.174;4.160;2022-10-16T08:16:11;8.23;;;2.10;;
18776;SDS011;9517;51.174;4.160;2022-10-16T08:18:39;7.93;;;2.10;;
18776;SDS011;9517;51.174;4.160;2022-10-16T08:21:07;8.60;;;1.80;;
18776;SDS011;9517;51.174;4.160;2022-10-16T08:23:38;8.43;;;1.90;;
18776;SDS011;9517;51.174;4.160;2022-10-16T08:26:06;8.83;;;2.03;;
18776;SDS011;9517;51.174;4.160;2022-10-16T08:28:34;11.50;;;2.63;;
18776;SDS011;9517;51.174;4.160;2022-10-16T08:31:05;11.10;;;2.00;;
18776;SDS011;9517;51.174;4.160;2022-10-16T08:33:35;10.57;;;2.13;;
18776;SDS011;9517;51.174;4.160;2022-10-16T08:36:03;6.97;;;1.80;;
18776;SDS011;9517;51.174;4.160;2022-10-16T08:38:32;8.10;;;1.97;;
18776;SDS011;9517;51.174;4.160;2022-10-16T08:41:02;7.40;;;1.67;;
18776;SDS011;9517;51.174;4.160;2022-10-16T08:44:00;10.17;;;2.07;;
18776;SDS011;9517;51.174;4.160;2022-10-16T08:46:43;9.43;;;1.60;;
18776;SDS011;9517;51.174;4.160;2022-10-16T08:49:15;9.03;;;1.63;;
18776;SDS011;9517;51.174;4.160;2022-10-16T08:51:43;9.13;;;1.40;;
18776;SDS011;9517;51.174;4.160;2022-10-16T08:54:15;9.77;;;1.60;;
18776;SDS011;9517;51.174;4.160;2022-10-16T08:56:54;8.63;;;1.70;;
18776;SDS011;9517;51.174;4.160;2022-10-16T08:59:22;9.40;;;1.50;;
18776;SDS011;9517;51.174;4.160;2022-10-16T09:01:49;13.97;;;1.70;;
18776;SDS011;9517;51.174;4.160;2022-10-16T09:07:16;11.47;;;1.97;;
18776;SDS011;9517;51.174;4.160;2022-10-16T09:09:54;10.70;;;1.87;;
18776;SDS011;9517;51.174;4.160;2022-10-16T09:12:45;6.00;;;1.50;;
18776;SDS011;9517;51.174;4.160;2022-10-16T09:15:20;10.23;;;1.80;;
18776;SDS011;9517;51.174;4.160;2022-10-16T09:17:55;6.60;;;1.10;;
18776;SDS011;9517;51.174;4.160;2022-10-16T09:20:32;7.80;;;1.73;;
18776;SDS011;9517;51.174;4.160;2022-10-16T09:23:13;10.53;;;1.97;;
18776;SDS011;9517;51.174;4.160;2022-10-16T09:25:43;10.63;;;1.70;;
18776;SDS011;9517;51.174;4.160;2022-10-16T09:28:12;13.03;;;1.50;;
18776;SDS011;9517;51.174;4.160;2022-10-16T09:30:40;14.57;;;1.80;;
18776;SDS011;9517;51.174;4.160;2022-10-16T09:33:07;11.20;;;1.87;;
18776;SDS011;9517;51.174;4.160;2022-10-16T09:35:39;9.83;;;1.50;;
18776;SDS011;9517;51.174;4.160;2022-10-16T09:38:26;10.93;;;1.70;;
18776;SDS011;9517;51.174;4.160;2022-10-16T09:40:54;10.13;;;1.40;;
18776;SDS011;9517;51.174;4.160;2022-10-16T09:43:24;13.00;;;1.63;;
18776;SDS011;9517;51.174;4.160;2022-10-16T09:45:57;12.40;;;1.30;;
18776;SDS011;9517;51.174;4.160;2022-10-16T09:48:28;8.40;;;1.77;;
18776;SDS011;9517;51.174;4.160;2022-10-16T09:51:04;14.57;;;1.80;;
18776;SDS011;9517;51.174;4.160;2022-10-16T09:53:38;10.97;;;1.80;;
18776;SDS011;9517;51.174;4.160;2022-10-16T09:56:07;8.27;;;1.47;;
18776;SDS011;9517;51.174;4.160;2022-10-16T09:58:41;10.27;;;1.43;;
18776;SDS011;9517;51.174;4.160;2022-10-16T10:01:10;14.73;;;1.87;;
18776;SDS011;9517;51.174;4.160;2022-10-16T10:10:36;13.53;;;1.90;;
18776;SDS011;9517;51.174;4.160;2022-10-16T10:13:15;11.20;;;1.77;;
18776;SDS011;9517;51.174;4.160;2022-10-16T10:15:51;10.23;;;1.60;;
18776;SDS011;9517;51.174;4.160;2022-10-16T10:18:19;14.07;;;1.87;;
18776;SDS011;9517;51.174;4.160;2022-10-16T10:20:56;11.33;;;1.63;;
18776;SDS011;9517;51.174;4.160;2022-10-16T10:23:24;10.63;;;1.50;;
18776;SDS011;9517;51.174;4.160;2022-10-16T10:25:54;11.70;;;1.70;;
18776;SDS011;9517;51.174;4.160;2022-10-16T10:28:40;14.43;;;2.10;;
18776;SDS011;9517;51.174;4.160;2022-10-16T10:31:17;11.63;;;2.00;;
18776;SDS011;9517;51.174;4.160;2022-10-16T10:33:53;11.30;;;1.63;;
18776;SDS011;9517;51.174;4.160;2022-10-16T10:36:27;19.37;;;2.90;;
18776;SDS011;9517;51.174;4.160;2022-10-16T10:38:58;10.67;;;1.57;;
18776;SDS011;9517;51.174;4.160;2022-10-16T10:41:44;12.80;;;2.13;;
18776;SDS011;9517;51.174;4.160;2022-10-16T10:44:37;9.77;;;1.90;;
18776;SDS011;9517;51.174;4.160;2022-10-16T10:47:20;13.00;;;1.80;;
18776;SDS011;9517;51.174;4.160;2022-10-16T10:50:00;12.40;;;2.30;;
18776;SDS011;9517;51.174;4.160;2022-10-16T10:52:39;10.77;;;1.67;;
18776;SDS011;9517;51.174;4.160;2022-10-16T10:55:21;11.47;;;1.90;;
18776;SDS011;9517;51.174;4.160;2022-10-16T10:58:04;10.37;;;1.50;;
18776;SDS011;9517;51.174;4.160;2022-10-16T11:04:32;9.20;;;1.73;;
18776;SDS011;9517;51.174;4.160;2022-10-16T11:07:12;13.83;;;1.70;;
18776;SDS011;9517;51.174;4.160;2022-10-16T11:09:48;10.40;;;1.57;;
18776;SDS011;9517;51.174;4.160;2022-10-16T11:15:22;10.43;;;1.90;;
18776;SDS011;9517;51.174;4.160;2022-10-16T11:18:03;14.40;;;1.93;;
18776;SDS011;9517;51.174;4.160;2022-10-16T11:23:25;10.10;;;1.73;;
18776;SDS011;9517;51.174;4.160;2022-10-16T11:25:57;11.10;;;1.70;;
18776;SDS011;9517;51.174;4.160;2022-10-16T11:28:32;13.70;;;2.10;;
18776;SDS011;9517;51.174;4.160;2022-10-16T11:31:05;13.65;;;1.75;;
18776;SDS011;9517;51.174;4.160;2022-10-16T11:33:37;10.23;;;1.52;;
18776;SDS011;9517;51.174;4.160;2022-10-16T11:36:12;9.55;;;1.50;;
18776;SDS011;9517;51.174;4.160;2022-10-16T11:38:47;11.47;;;1.60;;
18776;SDS011;9517;51.174;4.160;2022-10-16T11:41:22;12.70;;;1.50;;
18776;SDS011;9517;51.174;4.160;2022-10-16T11:44:06;10.27;;;1.57;;
18776;SDS011;9517;51.174;4.160;2022-10-16T11:46:46;11.80;;;1.80;;
18776;SDS011;9517;51.174;4.160;2022-10-16T11:49:18;8.88;;;1.77;;
18776;SDS011;9517;51.174;4.160;2022-10-16T11:51:48;9.82;;;1.33;;
18776;SDS011;9517;51.174;4.160;2022-10-16T11:54:34;8.32;;;1.50;;
18776;SDS011;9517;51.174;4.160;2022-10-16T11:57:08;11.48;;;1.80;;
18776;SDS011;9517;51.174;4.160;2022-10-16T11:59:41;12.10;;;1.55;;
18776;SDS011;9517;51.174;4.160;2022-10-16T12:02:20;8.63;;;1.60;;
18776;SDS011;9517;51.174;4.160;2022-10-16T12:05:05;11.13;;;1.40;;
18776;SDS011;9517;51.174;4.160;2022-10-16T12:07:44;10.80;;;1.63;;
18776;SDS011;9517;51.174;4.160;2022-10-16T12:10:18;12.88;;;1.60;;
18776;SDS011;9517;51.174;4.160;2022-10-16T12:12:49;10.13;;;1.50;;
18776;SDS011;9517;51.174;4.160;2022-10-16T12:15:21;9.82;;;1.50;;
18776;SDS011;9517;51.174;4.160;2022-10-16T12:17:51;9.52;;;1.48;;
18776;SDS011;9517;51.174;4.160;2022-10-16T12:20:20;6.18;;;1.30;;
18776;SDS011;9517;51.174;4.160;2022-10-16T12:22:51;9.57;;;1.40;;
18776;SDS011;9517;51.174;4.160;2022-10-16T12:25:21;9.23;;;1.38;;
18776;SDS011;9517;51.174;4.160;2022-10-16T12:27:57;9.55;;;1.65;;
18776;SDS011;9517;51.174;4.160;2022-10-16T12:30:51;9.00;;;1.63;;
18776;SDS011;9517;51.174;4.160;2022-10-16T12:33:23;8.82;;;1.30;;
18776;SDS011;9517;51.174;4.160;2022-10-16T12:35:53;10.10;;;1.80;;
18776;SDS011;9517;51.174;4.160;2022-10-16T12:38:21;9.77;;;1.80;;
18776;SDS011;9517;51.174;4.160;2022-10-16T12:40:56;10.70;;;1.35;;
18776;SDS011;9517;51.174;4.160;2022-10-16T12:43:35;10.23;;;1.50;;
18776;SDS011;9517;51.174;4.160;2022-10-16T12:46:05;14.45;;;1.45;;
18776;SDS011;9517;51.174;4.160;2022-10-16T12:48:51;11.25;;;1.40;;
18776;SDS011;9517;51.174;4.160;2022-10-16T12:51:23;11.25;;;1.67;;
18776;SDS011;9517;51.174;4.160;2022-10-16T12:53:58;11.43;;;1.83;;
18776;SDS011;9517;51.174;4.160;2022-10-16T12:56:27;7.30;;;1.30;;
18776;SDS011;9517;51.174;4.160;2022-10-16T12:59:05;11.85;;;1.70;;
18776;SDS011;9517;51.174;4.160;2022-10-16T13:01:49;11.40;;;1.40;;
18776;SDS011;9517;51.174;4.160;2022-10-16T13:04:52;9.05;;;1.63;;
18776;SDS011;9517;51.174;4.160;2022-10-16T13:07:39;8.85;;;1.40;;
18776;SDS011;9517;51.174;4.160;2022-10-16T13:10:15;6.13;;;1.17;;
18776;SDS011;9517;51.174;4.160;2022-10-16T13:15:58;10.03;;;1.23;;
18776;SDS011;9517;51.174;4.160;2022-10-16T13:18:39;7.87;;;1.20;;
18776;SDS011;9517;51.174;4.160;2022-10-16T13:21:22;9.37;;;1.60;;
18776;SDS011;9517;51.174;4.160;2022-10-16T13:24:01;8.67;;;1.27;;
18776;SDS011;9517;51.174;4.160;2022-10-16T13:26:39;9.17;;;1.77;;
18776;SDS011;9517;51.174;4.160;2022-10-16T13:29:12;7.57;;;1.30;;
18776;SDS011;9517;51.174;4.160;2022-10-16T13:31:40;8.30;;;1.30;;
18776;SDS011;9517;51.174;4.160;2022-10-16T13:34:11;7.50;;;1.40;;
18776;SDS011;9517;51.174;4.160;2022-10-16T13:36:46;9.93;;;1.50;;
18776;SDS011;9517;51.174;4.160;2022-10-16T13:39:18;8.13;;;1.30;;
18776;SDS011;9517;51.174;4.160;2022-10-16T13:41:57;16.67;;;1.50;;
18776;SDS011;9517;51.174;4.160;2022-10-16T13:44:30;9.00;;;1.57;;
18776;SDS011;9517;51.174;4.160;2022-10-16T13:47:03;10.77;;;1.63;;
18776;SDS011;9517;51.174;4.160;2022-10-16T13:49:31;5.20;;;1.20;;
18776;SDS011;9517;51.174;4.160;2022-10-16T13:52:00;6.10;;;1.13;;
18776;SDS011;9517;51.174;4.160;2022-10-16T13:54:28;7.17;;;1.17;;
18776;SDS011;9517;51.174;4.160;2022-10-16T13:56:55;5.17;;;1.13;;
18776;SDS011;9517;51.174;4.160;2022-10-16T13:59:23;8.23;;;1.67;;
18776;SDS011;9517;51.174;4.160;2022-10-16T14:01:55;8.10;;;1.63;;
18776;SDS011;9517;51.174;4.160;2022-10-16T14:04:26;5.97;;;0.90;;
18776;SDS011;9517;51.174;4.160;2022-10-16T14:06:57;9.80;;;1.50;;
18776;SDS011;9517;51.174;4.160;2022-10-16T14:09:31;6.73;;;1.03;;
18776;SDS011;9517;51.174;4.160;2022-10-16T14:12:06;7.97;;;1.20;;
18776;SDS011;9517;51.174;4.160;2022-10-16T14:14:40;6.40;;;0.90;;
18776;SDS011;9517;51.174;4.160;2022-10-16T14:17:13;4.33;;;0.90;;
18776;SDS011;9517;51.174;4.160;2022-10-16T14:19:40;6.50;;;1.00;;
18776;SDS011;9517;51.174;4.160;2022-10-16T14:22:30;6.80;;;1.00;;
18776;SDS011;9517;51.174;4.160;2022-10-16T14:25:01;6.90;;;0.90;;
18776;SDS011;9517;51.174;4.160;2022-10-16T14:27:57;3.50;;;0.73;;
18776;SDS011;9517;51.174;4.160;2022-10-16T14:30:30;7.63;;;1.00;;
18776;SDS011;9517;51.174;4.160;2022-10-16T14:33:03;5.73;;;1.10;;
18776;SDS011;9517;51.174;4.160;2022-10-16T14:35:33;4.00;;;0.80;;
18776;SDS011;9517;51.174;4.160;2022-10-16T14:38:03;10.10;;;1.00;;
18776;SDS011;9517;51.174;4.160;2022-10-16T14:40:32;5.47;;;1.00;;
18776;SDS011;9517;51.174;4.160;2022-10-16T14:43:01;5.97;;;1.30;;
18776;SDS011;9517;51.174;4.160;2022-10-16T14:45:32;6.20;;;0.90;;
18776;SDS011;9517;51.174;4.160;2022-10-16T14:48:01;8.27;;;1.27;;
18776;SDS011;9517;51.174;4.160;2022-10-16T14:50:31;8.33;;;1.20;;
18776;SDS011;9517;51.174;4.160;2022-10-16T14:52:59;6.73;;;1.10;;
18776;SDS011;9517;51.174;4.160;2022-10-16T14:55:30;7.60;;;1.33;;
18776;SDS011;9517;51.174;4.160;2022-10-16T14:58:01;8.80;;;1.17;;
18776;SDS011;9517;51.174;4.160;2022-10-16T15:00:30;6.83;;;1.20;;
18776;SDS011;9517;51.174;4.160;2022-10-16T15:02:57;5.37;;;1.17;;
18776;SDS011;9517;51.174;4.160;2022-10-16T15:05:27;7.20;;;0.97;;
18776;SDS011;9517;51.174;4.160;2022-10-16T15:07:54;6.00;;;1.20;;
18776;SDS011;9517;51.174;4.160;2022-10-16T15:10:22;7.07;;;1.40;;
18776;SDS011;9517;51.174;4.160;2022-10-16T15:12:52;7.47;;;1.33;;
18776;SDS011;9517;51.174;4.160;2022-10-16T15:18:12;6.63;;;1.30;;
18776;SDS011;9517;51.174;4.160;2022-10-16T15:20:44;7.37;;;1.80;;
18776;SDS011;9517;51.174;4.160;2022-10-16T15:23:13;6.77;;;1.13;;
18776;SDS011;9517;51.174;4.160;2022-10-16T15:25:42;8.70;;;1.43;;
18776;SDS011;9517;51.174;4.160;2022-10-16T15:28:12;6.10;;;1.20;;
18776;SDS011;9517;51.174;4.160;2022-10-16T15:30:41;8.87;;;1.97;;
18776;SDS011;9517;51.174;4.160;2022-10-16T15:33:15;6.13;;;1.13;;
18776;SDS011;9517;51.174;4.160;2022-10-16T15:35:45;8.00;;;0.97;;
18776;SDS011;9517;51.174;4.160;2022-10-16T15:38:14;6.30;;;1.10;;
18776;SDS011;9517;51.174;4.160;2022-10-16T15:40:42;5.90;;;1.23;;
18776;SDS011;9517;51.174;4.160;2022-10-16T15:43:09;12.07;;;1.43;;